createdAt,value
2022-10-29T00:09:47.515Z,2.30
2022-10-29T00:20:02.766Z,2.95
2022-10-29T00:30:13.467Z,1.67
2022-10-29T00:40:22.445Z,4.00
2022-10-29T00:50:31.087Z,4.15
2022-10-29T01:01:00.293Z,3.10
2022-10-29T01:11:24.617Z,5.68
2022-10-29T01:21:47.260Z,4.20
2022-10-29T01:31:58.918Z,2.70
2022-10-29T01:42:14.249Z,3.65
2022-10-29T01:52:24.992Z,3.17
2022-10-29T02:02:55.593Z,3.40
2022-10-29T02:13:05.114Z,3.83
2022-10-29T02:23:12.177Z,3.13
2022-10-29T02:33:22.536Z,3.25
2022-10-29T02:43:29.661Z,3.78
2022-10-29T02:53:41.567Z,2.80
2022-10-29T03:03:54.546Z,2.92
2022-10-29T03:14:03.544Z,5.20
2022-10-29T03:24:21.329Z,3.80
2022-10-29T03:34:46.691Z,2.97
2022-10-29T03:45:21.296Z,4.43
2022-10-29T03:55:35.607Z,3.88
2022-10-29T04:05:48.960Z,4.43
2022-10-29T04:16:03.535Z,4.75
2022-10-29T05:00:48.411Z,2.33
2022-10-29T05:12:09.853Z,2.35
2022-10-29T05:34:21.381Z,4.22
2022-10-29T05:44:37.411Z,5.47
2022-10-29T05:55:11.919Z,4.75
2022-10-29T06:05:33.364Z,3.10
2022-10-29T06:16:03.663Z,3.67
2022-10-29T06:27:05.683Z,2.72
2022-10-29T06:37:39.577Z,3.30
2022-10-29T06:47:59.854Z,2.05
2022-10-29T06:58:16.398Z,2.72
2022-10-29T07:08:31.470Z,2.97
2022-10-29T07:18:52.717Z,2.10
2022-10-29T07:29:20.790Z,1.48
2022-10-29T07:39:34.641Z,1.38
2022-10-29T07:49:48.711Z,1.85
2022-10-29T08:00:09.881Z,1.58
2022-10-29T08:33:21.078Z,1.70
2022-10-29T08:43:52.728Z,1.42
2022-10-29T08:54:34.341Z,1.42
2022-10-29T09:04:48.941Z,2.38
2022-10-29T09:26:34.862Z,1.60
2022-10-29T09:36:53.181Z,1.00
2022-10-29T09:47:16.294Z,1.77
2022-10-29T09:57:29.685Z,1.42
2022-10-29T10:08:07.419Z,1.23
2022-10-29T10:19:13.146Z,1.10
2022-10-29T10:29:35.610Z,1.65
2022-10-29T11:03:01.496Z,1.48
2022-10-29T11:13:35.053Z,1.70
2022-10-29T11:24:04.691Z,0.98
2022-10-29T11:34:28.727Z,1.63
2022-10-29T11:44:46.581Z,1.27
2022-10-29T11:55:25.972Z,1.55
2022-10-29T12:05:49.945Z,1.20
2022-10-29T12:16:17.796Z,2.10
2022-10-29T12:26:53.584Z,2.80
2022-10-29T12:37:30.811Z,2.28
2022-10-29T12:48:16.467Z,1.73
2022-10-29T12:58:58.121Z,1.42
2022-10-29T13:09:23.017Z,1.90
2022-10-29T13:19:55.234Z,1.58
2022-10-29T13:30:34.759Z,2.58
2022-10-29T13:41:20.504Z,1.48
2022-10-29T13:51:37.057Z,1.33
2022-10-29T14:02:20.377Z,2.20
2022-10-29T14:12:58.885Z,2.03
2022-10-29T14:23:35.641Z,1.30
2022-10-29T14:34:07.889Z,2.72
2022-10-29T14:44:39.498Z,1.75
2022-10-29T14:54:52.861Z,1.40
2022-10-29T15:05:07.439Z,1.67
2022-10-29T15:15:32.681Z,3.23
2022-10-29T15:25:54.217Z,3.78
2022-10-29T17:40:48.337Z,3.60
2022-10-29T18:52:33.361Z,4.93
2022-10-29T19:02:51.085Z,4.15
2022-10-29T19:13:14.594Z,4.50
2022-10-29T19:23:26.019Z,3.53
2022-10-29T19:33:56.193Z,3.40
2022-10-29T19:44:23.653Z,4.82
2022-10-29T19:55:09.354Z,3.10
2022-10-29T20:05:31.691Z,3.60
2022-10-29T20:16:08.500Z,3.72
2022-10-29T20:26:57.757Z,3.80
2022-10-29T20:38:11.437Z,3.13
2022-10-29T20:48:37.165Z,4.15
2022-10-29T21:09:39.993Z,3.15
2022-10-29T21:20:00.476Z,4.83
2022-10-29T21:30:16.749Z,2.65
2022-10-29T21:40:53.641Z,3.80
2022-10-29T21:51:10.327Z,4.25
2022-10-29T22:01:47.754Z,2.83
2022-10-29T22:12:04.760Z,4.93
2022-10-29T22:22:20.871Z,2.40
2022-10-29T22:32:40.645Z,4.57
2022-10-29T22:42:56.757Z,3.40
2022-10-29T22:53:13.715Z,4.70
2022-10-29T23:03:27.657Z,3.45
2022-10-29T23:24:18.884Z,2.60
2022-10-29T23:34:33.261Z,3.97
2022-10-29T23:44:48.478Z,3.08
